Time;durP1;ratioP1;P1;durP2;ratioP2;P2;SDS_P1;SDS_P2;PMS_P1;PMS_P2;Temp;Humidity;BMP_temperature;BMP_pressure;BME280_temperature;BME280_humidity;BME280_pressure;Samples;Min_cycle;Max_cycle;Signal;HPM_P1;HPM_P2
2021/08/14 00:00:18;;;;;;;19.40;4.53;;;;;;;21.12;58.15;101754.00;5053142;28;20052;-69
2021/08/14 00:02:45;;;;;;;16.20;4.83;;;;;;;21.01;58.44;101753.72;5053300;28;20377;-69
2021/08/14 00:05:13;;;;;;;14.52;4.30;;;;;;;21.02;58.51;101757.34;5052713;28;20287;-70
2021/08/14 00:07:40;;;;;;;16.23;4.72;;;;;;;20.95;58.24;101754.31;5052997;28;20053;-70
2021/08/14 00:10:09;;;;;;;16.08;4.43;;;;;;;21.02;57.75;101748.94;5053140;28;20048;-63
2021/08/14 00:12:36;;;;;;;15.82;4.68;;;;;;;21.10;57.27;101750.75;5049794;28;20042;-62
2021/08/14 00:15:04;;;;;;;19.38;4.57;;;;;;;21.01;57.28;101750.09;5032964;28;20049;-62
2021/08/14 00:17:31;;;;;;;20.13;4.63;;;;;;;20.85;57.47;101747.22;5031770;28;20057;-62
2021/08/14 00:19:58;;;;;;;20.42;4.57;;;;;;;20.66;58.27;101744.28;5034106;28;20057;-69
2021/08/14 00:22:26;;;;;;;22.60;5.03;;;;;;;20.62;58.43;101748.97;5036327;28;20046;-70
2021/08/14 00:24:53;;;;;;;25.65;5.43;;;;;;;20.55;58.41;101742.34;5036356;28;20623;-69
2021/08/14 00:27:20;;;;;;;21.38;5.10;;;;;;;20.64;58.28;101741.03;5035364;28;20060;-70
2021/08/14 00:29:47;;;;;;;22.88;5.10;;;;;;;20.67;58.04;101739.50;5036489;28;20049;-69
2021/08/14 00:32:15;;;;;;;20.60;4.90;;;;;;;20.37;59.14;101736.22;5002207;28;20053;-70
2021/08/14 00:34:42;;;;;;;16.33;4.90;;;;;;;20.33;59.34;101735.31;5036164;28;20517;-70
2021/08/14 00:37:09;;;;;;;19.08;5.05;;;;;;;20.61;58.49;101732.50;5036139;28;20046;-70
2021/08/14 00:39:37;;;;;;;13.73;4.57;;;;;;;20.56;58.55;101736.41;5036324;28;20080;-69
2021/08/14 00:42:04;;;;;;;21.02;4.13;;;;;;;20.70;58.44;101735.97;5036390;28;20045;-69
2021/08/14 00:44:33;;;;;;;20.92;4.70;;;;;;;20.45;58.63;101737.28;5036227;28;20667;-70
2021/08/14 00:47:05;;;;;;;19.50;4.23;;;;;;;20.62;58.42;101739.75;5035028;28;20065;-70
2021/08/14 00:49:33;;;;;;;15.98;4.60;;;;;;;20.32;58.70;101746.84;5035583;28;20049;-69
2021/08/14 00:52:01;;;;;;;19.00;4.25;;;;;;;20.15;59.34;101751.53;5036452;28;20041;-69
2021/08/14 00:54:28;;;;;;;23.90;4.72;;;;;;;19.98;59.31;101739.78;5036162;28;20049;-69
2021/08/14 00:56:57;;;;;;;20.38;4.32;;;;;;;19.93;59.33;101740.84;5035815;28;20053;-70
2021/08/14 00:59:29;;;;;;;17.60;4.72;;;;;;;19.96;58.79;101745.72;5034371;28;20061;-63
2021/08/14 01:02:06;;;;;;;16.58;4.28;;;;;;;20.18;58.00;101744.44;5018701;28;20053;-69
2021/08/14 01:04:34;;;;;;;12.82;4.15;;;;;;;20.18;57.83;101747.25;5034393;28;20052;-70
2021/08/14 01:07:01;;;;;;;17.75;4.32;;;;;;;20.01;58.72;101747.50;5033853;28;20053;-70
2021/08/14 01:09:29;;;;;;;25.70;4.53;;;;;;;19.97;58.70;101750.16;5034524;28;20049;-62
2021/08/14 01:11:58;;;;;;;18.77;4.20;;;;;;;19.88;58.83;101748.66;5034149;28;20060;-62
2021/08/14 01:14:26;;;;;;;18.85;4.35;;;;;;;19.85;59.07;101747.38;5053719;28;20041;-63
2021/08/14 01:16:56;;;;;;;16.10;4.60;;;;;;;19.69;59.66;101748.44;5054199;28;20045;-70
2021/08/14 01:19:24;;;;;;;22.45;4.47;;;;;;;19.69;60.11;101743.66;5055502;28;20052;-70
2021/08/14 01:21:52;;;;;;;15.68;4.50;;;;;;;19.74;59.69;101743.44;5055365;28;20045;-70
2021/08/14 01:24:20;;;;;;;15.00;4.38;;;;;;;19.83;59.75;101744.13;5055429;28;20392;-70
2021/08/14 01:26:49;;;;;;;14.52;4.22;;;;;;;20.26;58.55;101737.09;5055356;28;20060;-70
2021/08/14 01:29:16;;;;;;;22.67;4.88;;;;;;;20.07;58.60;101724.50;5054048;28;20385;-62
2021/08/14 01:31:44;;;;;;;25.58;4.75;;;;;;;20.00;58.60;101729.06;5054092;28;20046;-70
2021/08/14 01:34:12;;;;;;;18.98;4.38;;;;;;;19.88;59.00;101726.28;5055163;28;20053;-70
2021/08/14 01:36:39;;;;;;;19.58;4.40;;;;;;;19.93;59.16;101726.03;5054679;28;20053;-70
2021/08/14 01:39:06;;;;;;;16.50;5.28;;;;;;;20.03;58.81;101726.38;5053702;28;20057;-62
2021/08/14 01:41:33;;;;;;;15.93;4.70;;;;;;;20.22;58.22;101730.56;5053765;28;20528;-63
2021/08/14 01:44:05;;;;;;;16.00;4.32;;;;;;;20.13;58.52;101725.09;5055143;28;20394;-62
2021/08/14 01:46:35;;;;;;;15.05;4.68;;;;;;;20.04;58.60;101728.03;5054919;28;20057;-62
2021/08/14 01:49:02;;;;;;;18.92;4.32;;;;;;;20.06;58.11;101719.28;5054649;28;20129;-62
2021/08/14 01:51:30;;;;;;;21.67;4.05;;;;;;;19.98;58.52;101725.78;5036345;28;20064;-63
2021/08/14 01:53:59;;;;;;;21.58;4.70;;;;;;;19.96;58.68;101728.94;5055007;28;20048;-62
2021/08/14 01:56:27;;;;;;;16.98;4.05;;;;;;;20.08;58.29;101723.31;5054130;28;20056;-62
2021/08/14 01:58:54;;;;;;;14.35;4.18;;;;;;;20.00;58.65;101720.66;5052992;28;20063;-62
2021/08/14 02:01:22;;;;;;;17.08;4.28;;;;;;;19.89;58.87;101717.53;5054758;28;20045;-62
2021/08/14 02:03:49;;;;;;;16.45;4.65;;;;;;;19.94;58.56;101716.50;5054705;28;20099;-72
2021/08/14 02:06:18;;;;;;;14.23;4.53;;;;;;;20.02;58.32;101715.53;5053059;28;20053;-62
2021/08/14 02:08:46;;;;;;;20.45;4.50;;;;;;;19.94;58.42;101713.69;5054106;28;20083;-68
2021/08/14 02:11:18;;;;;;;16.05;4.15;;;;;;;19.89;58.11;101713.94;5054573;28;20049;-69
2021/08/14 02:13:48;;;;;;;16.13;4.38;;;;;;;19.87;58.10;101721.88;5041702;28;20408;-69
2021/08/14 02:16:16;;;;;;;19.92;5.05;;;;;;;19.60;58.72;101717.81;5034407;28;20524;-68
2021/08/14 02:18:44;;;;;;;19.13;4.93;;;;;;;19.45;59.51;101701.75;5033121;28;20159;-63
2021/08/14 02:21:11;;;;;;;15.73;4.40;;;;;;;19.31;59.93;101715.25;5034870;28;20516;-63
2021/08/14 02:23:39;;;;;;;19.02;4.18;;;;;;;19.52;59.24;101713.16;5034225;28;20563;-70
2021/08/14 02:26:07;;;;;;;14.57;4.38;;;;;;;19.83;58.14;101701.38;5032784;28;20053;-71
2021/08/14 02:28:34;;;;;;;17.13;3.72;;;;;;;20.07;57.47;101695.72;5033076;28;20480;-70
2021/08/14 02:31:03;;;;;;;18.70;4.30;;;;;;;19.61;58.64;101705.47;5032838;28;20054;-70
2021/08/14 02:33:31;;;;;;;20.33;4.43;;;;;;;19.61;58.67;101705.47;5034079;28;20420;-70
2021/08/14 02:35:59;;;;;;;16.70;4.38;;;;;;;19.76;58.26;101701.13;5033744;28;20497;-70
2021/08/14 02:38:26;;;;;;;24.35;4.80;;;;;;;19.66;57.76;101704.41;5033763;28;20056;-69
2021/08/14 02:40:54;;;;;;;16.02;3.83;;;;;;;19.76;57.64;101699.16;5032913;28;20053;-69
2021/08/14 02:43:21;;;;;;;16.17;4.72;;;;;;;19.69;58.13;101696.16;5033607;28;20397;-69
2021/08/14 02:45:49;;;;;;;16.17;4.10;;;;;;;19.21;59.43;101703.69;5033496;28;20050;-63
2021/08/14 02:48:16;;;;;;;15.48;3.92;;;;;;;19.32;59.14;101697.31;5033805;28;20049;-62
2021/08/14 02:50:45;;;;;;;19.23;4.75;;;;;;;19.38;58.83;101698.72;5033802;28;20076;-69
2021/08/14 02:53:13;;;;;;;17.42;4.82;;;;;;;19.39;59.32;101689.16;5032497;28;20057;-62
2021/08/14 02:55:41;;;;;;;16.95;4.57;;;;;;;19.49;58.63;101688.69;5033525;28;20519;-69
2021/08/14 02:58:08;;;;;;;18.08;4.35;;;;;;;19.84;57.99;101684.22;5033896;28;20053;-70
2021/08/14 03:00:36;;;;;;;13.52;4.53;;;;;;;19.72;58.00;101681.47;5033684;28;20057;-62
2021/08/14 03:03:03;;;;;;;18.13;4.57;;;;;;;19.66;58.58;101682.88;5033626;28;20048;-62
2021/08/14 03:05:34;;;;;;;19.55;4.35;;;;;;;19.89;57.83;101678.38;5032409;28;20057;-69
2021/08/14 03:08:01;;;;;;;20.45;4.50;;;;;;;19.59;58.02;101681.81;5034362;28;20048;-70
2021/08/14 03:10:28;;;;;;;15.38;4.75;;;;;;;19.71;58.16;101679.00;5034168;28;20057;-70
2021/08/14 03:12:56;;;;;;;18.67;4.95;;;;;;;19.48;58.10;101675.91;5039764;28;20049;-70
2021/08/14 03:15:23;;;;;;;16.92;4.32;;;;;;;19.54;58.53;101673.69;5051818;28;20548;-70
2021/08/14 03:17:54;;;;;;;17.83;4.20;;;;;;;19.63;57.92;101677.97;5052001;28;20056;-63
2021/08/14 03:20:21;;;;;;;15.35;4.47;;;;;;;19.64;57.63;101671.22;5053198;28;20064;-62
2021/08/14 03:22:48;;;;;;;22.17;4.82;;;;;;;19.19;58.89;101670.50;5051898;28;20049;-69
2021/08/14 03:25:16;;;;;;;17.25;4.32;;;;;;;19.09;59.61;101668.97;5051591;28;20068;-69
2021/08/14 03:27:43;;;;;;;17.90;4.47;;;;;;;19.02;59.31;101679.13;5051231;28;20080;-70
2021/08/14 03:30:14;;;;;;;18.20;4.65;;;;;;;18.91;60.56;101669.53;5053411;28;20049;-68
2021/08/14 03:32:41;;;;;;;20.90;4.60;;;;;;;18.93;60.41;101668.03;5053296;28;20041;-69
2021/08/14 03:35:09;;;;;;;17.75;3.95;;;;;;;19.26;59.48;101672.72;5053422;28;20405;-62
2021/08/14 03:37:36;;;;;;;14.80;4.60;;;;;;;19.22;59.30;101666.19;5053148;28;20064;-69
2021/08/14 03:40:06;;;;;;;14.25;4.18;;;;;;;19.29;59.29;101670.03;5053501;28;20071;-69
2021/08/14 03:42:33;;;;;;;14.25;4.35;;;;;;;19.36;58.85;101661.94;5052129;28;20056;-62
2021/08/14 03:45:00;;;;;;;14.90;4.50;;;;;;;19.69;58.37;101658.97;5053347;28;20060;-62
2021/08/14 03:47:28;;;;;;;18.30;4.78;;;;;;;19.57;58.24;101665.41;5053055;28;20053;-62
2021/08/14 03:49:55;;;;;;;16.08;4.45;;;;;;;19.54;58.93;101656.91;5053169;28;20064;-62
2021/08/14 03:52:23;;;;;;;14.95;4.47;;;;;;;19.61;58.08;101657.97;5052936;28;20057;-62
2021/08/14 03:54:50;;;;;;;17.63;4.55;;;;;;;19.63;57.99;101666.78;5052752;28;20056;-62
2021/08/14 03:57:18;;;;;;;14.98;4.40;;;;;;;19.56;58.57;101658.19;5055132;28;20052;-62
2021/08/14 03:59:45;;;;;;;18.35;4.97;;;;;;;19.23;59.44;101653.88;5055915;28;20048;-62
2021/08/14 04:02:12;;;;;;;20.73;5.38;;;;;;;19.31;59.51;101653.78;5055213;28;20053;-62
2021/08/14 04:04:40;;;;;;;17.30;4.32;;;;;;;19.26;59.52;101648.41;5056766;28;20060;-63
2021/08/14 04:07:07;;;;;;;18.60;4.57;;;;;;;19.46;59.12;101646.66;5055314;28;20052;-69
2021/08/14 04:09:34;;;;;;;16.77;4.63;;;;;;;19.34;59.28;101655.88;5056718;28;20061;-70
2021/08/14 04:12:02;;;;;;;16.35;4.60;;;;;;;19.23;59.44;101651.88;5055146;28;20052;-63
2021/08/14 04:14:29;;;;;;;19.40;4.68;;;;;;;18.83;60.89;101656.47;5038005;28;20237;-62
2021/08/14 04:16:56;;;;;;;24.30;4.80;;;;;;;18.63;61.46;101649.84;5035486;28;20057;-70
2021/08/14 04:19:23;;;;;;;17.50;4.93;;;;;;;18.75;61.25;101649.84;5035686;28;20053;-62
2021/08/14 04:21:51;;;;;;;17.63;4.47;;;;;;;19.06;60.88;101647.34;5035630;28;20049;-70
2021/08/14 04:24:18;;;;;;;23.95;5.20;;;;;;;18.86;60.96;101644.66;5036810;28;20052;-69
2021/08/14 04:26:45;;;;;;;17.42;4.63;;;;;;;19.03;60.64;101642.47;5018858;28;20060;-70
2021/08/14 04:29:12;;;;;;;15.32;4.22;;;;;;;19.08;60.58;101644.19;5036536;28;20045;-70
2021/08/14 04:31:40;;;;;;;16.52;4.68;;;;;;;19.08;60.60;101635.81;5036519;28;20058;-62
2021/08/14 04:34:07;;;;;;;16.50;5.10;;;;;;;19.15;60.28;101638.84;5036325;28;20358;-62
2021/08/14 04:36:34;;;;;;;13.57;4.53;;;;;;;19.14;60.01;101634.44;5036409;28;20064;-62
2021/08/14 04:39:01;;;;;;;17.25;4.70;;;;;;;19.08;60.48;101641.41;5036902;28;20057;-62
2021/08/14 04:41:29;;;;;;;14.05;4.53;;;;;;;18.85;60.87;101643.00;5036344;28;20415;-62
2021/08/14 04:43:56;;;;;;;15.65;5.07;;;;;;;18.84;61.44;101624.63;5036201;28;20041;-62
2021/08/14 04:46:23;;;;;;;16.88;4.90;;;;;;;19.06;60.31;101624.19;5035966;28;20050;-69
2021/08/14 04:48:50;;;;;;;18.90;5.90;;;;;;;18.98;61.15;101630.69;5036090;28;20056;-68
2021/08/14 04:51:18;;;;;;;17.90;5.15;;;;;;;19.02;60.67;101626.06;5035678;28;20076;-61
2021/08/14 04:53:45;;;;;;;15.52;4.55;;;;;;;19.27;60.02;101622.09;5034595;28;20064;-63
2021/08/14 04:56:12;;;;;;;15.05;5.07;;;;;;;19.12;60.37;101624.75;5034470;28;20050;-62
2021/08/14 04:58:39;;;;;;;17.40;5.05;;;;;;;18.95;60.96;101634.97;5035931;28;20049;-62
2021/08/14 05:01:07;;;;;;;20.42;5.07;;;;;;;18.87;61.60;101638.72;5017762;28;20065;-61
2021/08/14 05:03:34;;;;;;;18.20;5.47;;;;;;;18.86;61.25;101636.28;5036205;28;20049;-61
2021/08/14 05:06:02;;;;;;;17.77;5.30;;;;;;;18.93;61.03;101628.13;5035092;28;20045;-61
2021/08/14 05:08:30;;;;;;;20.88;5.78;;;;;;;19.11;61.11;101626.72;5035461;28;20050;-62
2021/08/14 05:10:57;;;;;;;16.60;5.05;;;;;;;19.38;59.82;101628.03;5035552;28;20413;-62
2021/08/14 05:13:24;;;;;;;17.85;5.75;;;;;;;19.56;59.11;101629.44;5045325;28;20041;-67
2021/08/14 05:15:51;;;;;;;20.08;4.70;;;;;;;19.32;59.69;101629.47;5054416;28;20049;-63
2021/08/14 05:18:19;;;;;;;19.40;5.07;;;;;;;19.35;59.35;101629.56;5055413;28;20431;-62
2021/08/14 05:20:46;;;;;;;24.15;5.43;;;;;;;19.27;59.99;101630.47;5055478;28;20060;-61
2021/08/14 05:23:13;;;;;;;14.90;5.45;;;;;;;19.45;59.37;101628.28;5055320;28;20041;-62
2021/08/14 05:25:41;;;;;;;17.95;5.22;;;;;;;19.47;59.25;101623.97;5053981;28;20374;-62
2021/08/14 05:28:08;;;;;;;17.50;4.80;;;;;;;19.50;58.65;101617.69;5055561;28;20444;-70
2021/08/14 05:30:35;;;;;;;15.38;5.22;;;;;;;19.59;58.38;101625.94;5055570;28;20049;-69
2021/08/14 05:33:02;;;;;;;17.73;5.38;;;;;;;19.70;57.65;101625.06;5055210;28;20052;-63
2021/08/14 05:35:29;;;;;;;15.88;4.50;;;;;;;19.59;58.43;101623.13;5053894;28;20049;-62
2021/08/14 05:37:57;;;;;;;17.17;4.90;;;;;;;19.61;58.24;101634.78;5053369;28;20053;-62
2021/08/14 05:40:24;;;;;;;16.45;4.85;;;;;;;19.62;58.38;101637.22;5055152;28;20575;-62
2021/08/14 05:42:51;;;;;;;17.50;5.25;;;;;;;19.45;58.79;101633.88;5053847;28;20511;-69
2021/08/14 05:45:19;;;;;;;12.52;4.90;;;;;;;19.18;59.49;101640.94;5055440;28;20049;-69
2021/08/14 05:47:46;;;;;;;17.13;5.40;;;;;;;19.49;nan;101641.19;5055073;28;20041;-69
2021/08/14 05:50:14;;;;;;;18.20;5.18;;;;;;;19.64;58.32;101646.06;5055181;28;20116;-70
2021/08/14 05:52:41;;;;;;;17.58;5.05;;;;;;;19.67;57.97;101650.94;5037349;28;20496;-63
2021/08/14 05:55:09;;;;;;;18.08;4.82;;;;;;;19.76;58.00;101642.44;5037283;28;20053;-70
2021/08/14 05:57:36;;;;;;;18.88;5.03;;;;;;;19.70;57.75;101644.66;5054689;28;20056;-62
2021/08/14 06:00:05;;;;;;;20.58;4.97;;;;;;;19.58;58.51;101646.66;5053301;28;20500;-62
2021/08/14 06:02:32;;;;;;;15.05;4.90;;;;;;;19.66;58.04;101657.72;5054780;28;20162;-62
2021/08/14 06:04:59;;;;;;;19.65;5.05;;;;;;;19.56;58.25;101660.19;5054570;28;20052;-62
2021/08/14 06:07:26;;;;;;;16.38;5.47;;;;;;;19.63;58.29;101661.19;5054179;28;20064;-62
2021/08/14 06:09:54;;;;;;;19.70;5.55;;;;;;;19.68;57.99;101655.34;5036638;28;20688;-61
2021/08/14 06:12:21;;;;;;;20.77;5.15;;;;;;;19.82;57.93;101657.81;5053124;28;20049;-62
2021/08/14 06:14:49;;;;;;;17.35;5.25;;;;;;;19.34;59.10;101667.03;5032885;28;20060;-62
2021/08/14 06:17:16;;;;;;;21.00;4.82;;;;;;;19.25;59.89;101659.94;5033525;28;20053;-62
2021/08/14 06:19:44;;;;;;;20.05;4.82;;;;;;;19.38;59.40;101664.38;5034306;28;20064;-63
2021/08/14 06:22:11;;;;;;;15.95;4.80;;;;;;;19.54;59.10;101657.75;5033156;28;20060;-69
2021/08/14 06:24:42;;;;;;;15.70;4.65;;;;;;;19.57;58.33;101659.00;5033296;28;20049;-70
2021/08/14 06:27:09;;;;;;;15.18;5.13;;;;;;;19.53;58.44;101667.28;5033122;28;20376;-69
2021/08/14 06:29:36;;;;;;;20.80;5.15;;;;;;;19.46;58.83;101669.00;5033166;28;20049;-70
2021/08/14 06:32:04;;;;;;;17.17;4.82;;;;;;;19.63;57.82;101664.00;5016800;28;20056;-62
2021/08/14 06:34:31;;;;;;;20.65;5.40;;;;;;;19.16;59.46;101673.97;5032468;28;20385;-64
2021/08/14 06:36:58;;;;;;;14.48;5.43;;;;;;;19.28;58.84;101671.22;5033669;28;20409;-62
2021/08/14 06:39:26;;;;;;;20.42;5.13;;;;;;;19.37;58.49;101668.34;5032836;28;20045;-62
2021/08/14 06:41:53;;;;;;;16.40;4.70;;;;;;;19.42;58.02;101671.69;5034088;28;20056;-62
2021/08/14 06:44:20;;;;;;;14.82;5.15;;;;;;;19.28;58.78;101673.19;5034188;28;20647;-70
2021/08/14 06:46:48;;;;;;;22.17;5.07;;;;;;;19.63;57.50;101672.38;5033859;28;20052;-62
2021/08/14 06:49:15;;;;;;;16.73;5.03;;;;;;;19.36;58.43;101666.69;5033736;28;20049;-62
2021/08/14 06:51:42;;;;;;;19.45;5.57;;;;;;;19.15;59.08;101671.53;5033862;28;20054;-63
2021/08/14 06:54:09;;;;;;;15.32;4.43;;;;;;;19.43;59.01;101667.75;5033803;28;20049;-69
2021/08/14 06:56:37;;;;;;;16.15;4.65;;;;;;;19.31;58.90;101664.13;5032070;28;20053;-69
2021/08/14 06:59:04;;;;;;;16.35;4.82;;;;;;;19.58;58.56;101669.81;5032419;28;20056;-71
2021/08/14 07:01:31;;;;;;;16.77;5.38;;;;;;;19.75;57.69;101665.97;5033828;28;20049;-69
2021/08/14 07:03:59;;;;;;;16.83;4.43;;;;;;;19.89;56.68;101661.59;5015859;28;20436;-62
2021/08/14 07:06:26;;;;;;;17.15;4.45;;;;;;;20.07;56.09;101668.56;5032282;28;20049;-64
2021/08/14 07:08:54;;;;;;;16.25;4.38;;;;;;;20.18;56.06;101663.31;5032180;28;20168;-71
2021/08/14 07:11:23;;;;;;;24.10;5.28;;;;;;;20.09;56.54;101659.81;5033877;28;20053;-69
2021/08/14 07:13:53;;;;;;;21.48;5.00;;;;;;;20.05;55.90;101668.09;5047188;28;20060;-71
2021/08/14 07:16:21;;;;;;;20.10;4.75;;;;;;;20.32;55.39;101666.53;5019217;28;20717;-70
2021/08/14 07:18:52;;;;;;;15.15;4.57;;;;;;;20.47;54.39;101662.94;5035881;28;20057;-70
2021/08/14 07:21:22;;;;;;;16.17;5.55;;;;;;;20.47;53.85;101662.16;5053356;28;20053;-70
2021/08/14 07:23:49;;;;;;;23.58;4.55;;;;;;;20.32;53.41;101669.31;5052535;28;20064;-69
2021/08/14 07:26:16;;;;;;;16.70;4.75;;;;;;;20.29;53.69;101663.63;5053504;28;20048;-70
2021/08/14 07:28:44;;;;;;;15.43;4.90;;;;;;;20.40;53.59;101661.97;5054089;28;20411;-70
2021/08/14 07:31:11;;;;;;;18.85;5.72;;;;;;;20.52;53.00;101654.28;5056059;28;20056;-71
2021/08/14 07:33:38;;;;;;;19.25;4.93;;;;;;;20.61;52.37;101656.94;5057588;28;20053;-69
2021/08/14 07:36:07;;;;;;;19.13;4.57;;;;;;;20.34;52.96;101658.59;5055995;28;20075;-62
2021/08/14 07:38:35;;;;;;;20.90;5.10;;;;;;;20.38;52.77;101648.28;5055773;28;20045;-62
2021/08/14 07:41:02;;;;;;;13.05;4.60;;;;;;;20.03;52.37;101658.44;5056029;28;20056;-70
2021/08/14 07:43:30;;;;;;;14.52;4.15;;;;;;;20.27;51.43;101651.97;5056038;28;20052;-64
2021/08/14 07:45:57;;;;;;;13.38;3.92;;;;;;;20.46;51.06;101652.13;5057708;28;20052;-70
2021/08/14 07:48:24;;;;;;;15.80;4.32;;;;;;;20.42;50.93;101660.41;5055573;28;20167;-63
2021/08/14 07:50:51;;;;;;;12.10;4.28;;;;;;;20.71;50.91;101648.03;5057358;28;20057;-64
2021/08/14 07:53:18;;;;;;;11.73;4.03;;;;;;;20.71;49.39;101651.63;5056908;28;20052;-64
2021/08/14 07:55:46;;;;;;;15.70;3.97;;;;;;;20.76;48.23;101647.75;5056922;28;20171;-63
2021/08/14 07:58:14;;;;;;;10.73;4.03;;;;;;;20.87;47.44;101646.06;5055290;28;20064;-63
2021/08/14 08:00:41;;;;;;;19.38;4.82;;;;;;;21.05;47.57;101644.53;5056994;28;20045;-62
2021/08/14 08:03:09;;;;;;;17.65;4.65;;;;;;;21.33;46.96;101644.44;5055581;28;20420;-63
2021/08/14 08:05:38;;;;;;;12.00;3.80;;;;;;;21.08;46.64;101643.81;5039035;28;20056;-70
2021/08/14 08:08:06;;;;;;;13.18;3.85;;;;;;;21.16;46.29;101635.25;5056654;28;20060;-63
2021/08/14 08:10:34;;;;;;;11.27;3.80;;;;;;;21.35;45.33;101642.91;5056999;28;20044;-64
2021/08/14 08:13:02;;;;;;;12.45;3.45;;;;;;;21.10;44.64;101641.47;5048763;28;20053;-71
2021/08/14 08:15:29;;;;;;;12.65;3.22;;;;;;;20.92;44.85;101640.97;5002579;28;20463;-63
2021/08/14 08:17:57;;;;;;;13.18;3.67;;;;;;;21.12;45.11;101645.53;5036563;28;20076;-69
2021/08/14 08:20:24;;;;;;;9.48;3.28;;;;;;;21.27;44.30;101640.28;5037086;28;20054;-69
2021/08/14 08:22:52;;;;;;;14.77;3.78;;;;;;;21.51;43.91;101628.88;5036559;28;20075;-70
2021/08/14 08:25:21;;;;;;;12.68;3.70;;;;;;;21.69;44.13;101625.28;5035555;28;20042;-71
2021/08/14 08:27:49;;;;;;;15.93;3.58;;;;;;;21.60;43.67;101623.88;5035224;28;20631;-64
2021/08/14 08:30:18;;;;;;;14.30;4.78;;;;;;;21.05;44.66;101639.75;5037171;28;20061;-62
2021/08/14 08:32:46;;;;;;;16.38;4.20;;;;;;;21.15;44.86;101632.78;5036376;28;20053;-63
2021/08/14 08:35:15;;;;;;;11.87;4.07;;;;;;;21.40;44.42;101624.97;5034593;28;20053;-64
2021/08/14 08:37:42;;;;;;;14.10;4.78;;;;;;;21.37;44.31;101631.31;5035979;28;20049;-70
2021/08/14 08:40:15;;;;;;;12.07;3.83;;;;;;;21.41;44.61;101627.41;5034582;28;20061;-72
2021/08/14 08:42:44;;;;;;;14.80;4.65;;;;;;;21.70;42.78;101617.69;5018889;28;20296;-73
2021/08/14 08:45:12;;;;;;;11.52;4.75;;;;;;;21.87;42.30;101623.72;5036621;28;20037;-70
2021/08/14 08:47:44;;;;;;;14.07;4.97;;;;;;;22.04;42.53;101626.09;5034867;28;20073;-70
2021/08/14 08:50:13;;;;;;;12.90;4.75;;;;;;;22.09;42.52;101622.16;5036021;28;20090;-70
2021/08/14 08:52:41;;;;;;;11.85;4.55;;;;;;;22.27;42.39;101612.94;5035930;28;20045;-61
2021/08/14 08:55:11;;;;;;;11.90;5.28;;;;;;;22.35;41.70;101611.88;5036019;28;20054;-70
2021/08/14 08:57:38;;;;;;;13.15;5.30;;;;;;;22.42;41.89;101610.41;5036075;28;20049;-62
2021/08/14 09:00:09;;;;;;;13.98;4.95;;;;;;;22.01;42.93;101610.00;5035706;28;20056;-62
2021/08/14 09:02:36;;;;;;;10.05;4.20;;;;;;;22.07;43.22;101611.31;5036211;28;20068;-71
2021/08/14 09:05:16;;;;;;;11.07;4.55;;;;;;;21.97;43.67;101605.47;5034144;28;20053;-70
2021/08/14 09:07:46;;;;;;;12.18;4.93;;;;;;;21.90;43.39;101605.31;5036003;28;20547;-62
2021/08/14 09:10:18;;;;;;;11.50;4.63;;;;;;;22.16;43.75;101605.47;5034478;28;20056;-61
2021/08/14 09:12:46;;;;;;;11.68;4.65;;;;;;;22.49;42.61;101600.09;5022609;28;20060;-70
2021/08/14 09:15:21;;;;;;;9.90;4.18;;;;;;;22.59;42.69;101595.91;5055604;28;20052;-62
2021/08/14 09:17:59;;;;;;;12.77;4.70;;;;;;;22.47;42.89;101601.69;5053606;28;20411;-64
2021/08/14 09:20:26;;;;;;;11.75;4.47;;;;;;;22.58;42.76;101597.13;5054278;28;20052;-63
2021/08/14 09:22:59;;;;;;;15.77;5.38;;;;;;;22.65;42.95;101594.44;5053976;28;20045;-62
2021/08/14 09:25:56;;;;;;;21.42;5.15;;;;;;;22.50;42.72;101598.13;5055505;28;20045;-71
2021/08/14 09:28:32;;;;;;;10.20;4.57;;;;;;;22.39;42.70;101599.94;5055333;28;20056;-64
2021/08/14 09:31:02;;;;;;;12.75;5.28;;;;;;;22.50;42.74;101598.13;5055444;28;20061;-62
2021/08/14 09:33:31;;;;;;;14.57;4.50;;;;;;;22.92;42.10;101596.09;5055470;28;20045;-69
2021/08/14 09:36:00;;;;;;;13.85;5.10;;;;;;;22.68;42.46;101596.50;5054081;28;20601;-69
2021/08/14 09:38:38;;;;;;;13.50;5.03;;;;;;;22.82;42.41;101589.09;5053488;28;20056;-70
2021/08/14 09:41:22;;;;;;;16.02;5.30;;;;;;;22.96;42.22;101589.34;5055230;28;20057;-70
2021/08/14 09:43:52;;;;;;;15.18;5.75;;;;;;;22.86;42.00;101586.34;5055288;28;20045;-62
2021/08/14 09:46:19;;;;;;;10.00;4.80;;;;;;;23.18;41.83;101593.31;5053917;28;20055;-62
2021/08/14 09:48:53;;;;;;;12.82;4.70;;;;;;;23.08;42.14;101591.16;5053518;28;20049;-62
2021/08/14 09:51:27;;;;;;;14.80;5.35;;;;;;;23.07;42.05;101584.72;5054591;28;20056;-62
2021/08/14 09:53:55;;;;;;;13.80;5.07;;;;;;;22.98;42.55;101591.81;5053726;28;20067;-62
2021/08/14 09:56:27;;;;;;;12.65;5.13;;;;;;;23.24;42.36;101577.78;5054917;28;20045;-63
2021/08/14 09:58:54;;;;;;;12.05;4.60;;;;;;;23.36;41.48;101588.84;5054579;28;20056;-63
2021/08/14 10:01:22;;;;;;;11.25;4.93;;;;;;;23.11;42.39;101581.97;5054642;28;20048;-63
2021/08/14 10:03:51;;;;;;;12.18;4.35;;;;;;;23.25;41.91;101576.56;5054695;28;20064;-62
2021/08/14 10:06:19;;;;;;;13.93;5.50;;;;;;;23.30;40.98;101571.47;5054734;28;20053;-63
2021/08/14 10:08:47;;;;;;;13.70;5.07;;;;;;;23.29;40.98;101563.41;5053307;28;20068;-63
2021/08/14 10:11:14;;;;;;;11.95;4.70;;;;;;;23.42;40.70;101565.63;5052875;28;20060;-62
2021/08/14 10:13:42;;;;;;;10.85;5.07;;;;;;;23.65;40.18;101568.34;5042101;28;20054;-63
2021/08/14 10:16:10;;;;;;;13.10;4.72;;;;;;;23.52;40.11;101568.97;5032669;28;20056;-63
2021/08/14 10:18:40;;;;;;;12.52;5.03;;;;;;;23.48;39.53;101562.47;5032705;28;20428;-63
2021/08/14 10:21:11;;;;;;;12.00;4.83;;;;;;;23.58;39.57;101564.63;5034001;28;20129;-63
2021/08/14 10:23:40;;;;;;;14.07;4.82;;;;;;;23.61;39.38;101561.84;5033167;28;20877;-63
2021/08/14 10:26:14;;;;;;;11.02;4.50;;;;;;;23.44;39.66;101559.63;5017071;28;20049;-70
2021/08/14 10:28:43;;;;;;;16.80;4.90;;;;;;;23.55;39.58;101549.34;5034249;28;20052;-63
2021/08/14 10:31:29;;;;;;;12.50;5.00;;;;;;;23.64;38.60;101547.03;5032639;28;20056;-63
2021/08/14 10:33:57;;;;;;;12.98;5.35;;;;;;;23.72;38.32;101537.50;5033041;28;20209;-63
2021/08/14 10:36:34;;;;;;;9.98;5.03;;;;;;;23.76;37.59;101543.16;5016370;28;20049;-63
2021/08/14 10:39:26;;;;;;;11.25;5.20;;;;;;;23.90;37.92;101544.13;5033810;28;20053;-62
2021/08/14 10:41:55;;;;;;;12.80;4.95;;;;;;;23.99;37.56;101541.88;5034088;28;20069;-63
2021/08/14 10:44:40;;;;;;;10.32;4.43;;;;;;;23.98;38.16;101534.59;5033966;28;20456;-70
2021/08/14 10:47:32;;;;;;;13.00;5.22;;;;;;;24.05;38.55;101528.25;5033854;28;20056;-70
2021/08/14 10:50:00;;;;;;;10.70;5.00;;;;;;;24.18;38.38;101526.81;5033630;28;20526;-69
2021/08/14 10:52:35;;;;;;;10.85;4.97;;;;;;;24.18;38.40;101530.44;5016231;28;20061;-71
2021/08/14 10:55:10;;;;;;;11.63;5.10;;;;;;;24.33;37.97;101523.75;5033700;28;20068;-70
2021/08/14 10:57:43;;;;;;;13.73;5.47;;;;;;;24.39;37.96;101519.38;5034475;28;20057;-72
2021/08/14 11:00:17;;;;;;;10.27;5.05;;;;;;;24.57;38.23;101524.38;5033663;28;20046;-71
2021/08/14 11:03:01;;;;;;;11.32;5.25;;;;;;;24.59;37.92;101524.78;5034334;28;20054;-71
2021/08/14 11:05:29;;;;;;;12.88;5.20;;;;;;;24.88;37.94;101515.41;5033389;28;20049;-63
2021/08/14 11:08:00;;;;;;;12.20;5.40;;;;;;;24.90;37.84;101515.81;5033881;28;20045;-71
2021/08/14 11:10:41;;;;;;;12.60;5.57;;;;;;;25.14;36.81;101512.38;5033730;28;20117;-70
2021/08/14 11:13:30;;;;;;;13.57;5.40;;;;;;;25.16;37.00;101505.13;5041690;28;20492;-70
2021/08/14 11:15:58;;;;;;;12.43;5.80;;;;;;;25.13;37.13;101497.47;5052808;28;20563;-70
2021/08/14 11:18:51;;;;;;;14.90;5.63;;;;;;;25.15;37.34;101503.53;5035841;28;20412;-62
2021/08/14 11:21:39;;;;;;;11.77;5.68;;;;;;;24.83;38.28;101507.31;5051507;28;20056;-63
2021/08/14 11:24:07;;;;;;;11.90;5.60;;;;;;;25.02;38.20;101496.59;5053279;28;20049;-63